sensor_id;sensor_type;location;lat;lon;timestamp;P1;durP1;ratioP1;P2;durP2;ratioP2
15833;SDS011;8017;50.812;4.934;2023-04-24T00:00:26;16.10;;;12.80;;
15833;SDS011;8017;50.812;4.934;2023-04-24T00:03:28;21.27;;;13.30;;
15833;SDS011;8017;50.812;4.934;2023-04-24T00:06:30;20.20;;;12.30;;
15833;SDS011;8017;50.812;4.934;2023-04-24T00:09:34;19.00;;;13.47;;
15833;SDS011;8017;50.812;4.934;2023-04-24T00:12:35;16.57;;;13.57;;
15833;SDS011;8017;50.812;4.934;2023-04-24T00:15:39;18.70;;;13.97;;
15833;SDS011;8017;50.812;4.934;2023-04-24T00:18:41;19.37;;;14.53;;
15833;SDS011;8017;50.812;4.934;2023-04-24T00:21:42;19.50;;;13.90;;
15833;SDS011;8017;50.812;4.934;2023-04-24T00:24:44;21.27;;;14.43;;
15833;SDS011;8017;50.812;4.934;2023-04-24T00:27:46;18.53;;;14.50;;
15833;SDS011;8017;50.812;4.934;2023-04-24T00:30:49;19.53;;;14.50;;
15833;SDS011;8017;50.812;4.934;2023-04-24T00:33:52;17.63;;;14.13;;
15833;SDS011;8017;50.812;4.934;2023-04-24T00:36:54;19.73;;;14.13;;
15833;SDS011;8017;50.812;4.934;2023-04-24T00:39:55;24.23;;;14.57;;
15833;SDS011;8017;50.812;4.934;2023-04-24T00:42:57;19.30;;;13.70;;
15833;SDS011;8017;50.812;4.934;2023-04-24T00:46:01;22.37;;;14.30;;
15833;SDS011;8017;50.812;4.934;2023-04-24T00:49:03;22.30;;;13.47;;
15833;SDS011;8017;50.812;4.934;2023-04-24T00:52:06;16.57;;;13.77;;
15833;SDS011;8017;50.812;4.934;2023-04-24T00:55:08;18.97;;;14.53;;
15833;SDS011;8017;50.812;4.934;2023-04-24T00:58:10;21.03;;;14.63;;
15833;SDS011;8017;50.812;4.934;2023-04-24T01:01:14;17.60;;;13.17;;
15833;SDS011;8017;50.812;4.934;2023-04-24T01:04:16;19.87;;;13.50;;
15833;SDS011;8017;50.812;4.934;2023-04-24T01:07:19;18.37;;;13.87;;
15833;SDS011;8017;50.812;4.934;2023-04-24T01:10:21;20.60;;;13.77;;
15833;SDS011;8017;50.812;4.934;2023-04-24T01:13:25;22.73;;;13.83;;
15833;SDS011;8017;50.812;4.934;2023-04-24T01:16:29;15.63;;;13.93;;
15833;SDS011;8017;50.812;4.934;2023-04-24T01:19:31;18.20;;;13.87;;
15833;SDS011;8017;50.812;4.934;2023-04-24T01:22:34;16.67;;;12.80;;
15833;SDS011;8017;50.812;4.934;2023-04-24T01:25:36;19.90;;;13.73;;
15833;SDS011;8017;50.812;4.934;2023-04-24T01:28:39;21.67;;;13.73;;
15833;SDS011;8017;50.812;4.934;2023-04-24T01:31:41;17.80;;;13.13;;
15833;SDS011;8017;50.812;4.934;2023-04-24T01:34:43;22.03;;;13.53;;
15833;SDS011;8017;50.812;4.934;2023-04-24T01:37:47;20.00;;;14.53;;
15833;SDS011;8017;50.812;4.934;2023-04-24T01:40:49;23.77;;;14.37;;
15833;SDS011;8017;50.812;4.934;2023-04-24T01:43:52;17.37;;;13.63;;
15833;SDS011;8017;50.812;4.934;2023-04-24T01:46:54;21.70;;;14.53;;
15833;SDS011;8017;50.812;4.934;2023-04-24T01:49:56;20.27;;;14.83;;
15833;SDS011;8017;50.812;4.934;2023-04-24T01:53:00;19.43;;;14.30;;
15833;SDS011;8017;50.812;4.934;2023-04-24T01:56:02;16.83;;;13.93;;
15833;SDS011;8017;50.812;4.934;2023-04-24T01:59:04;17.10;;;14.33;;
15833;SDS011;8017;50.812;4.934;2023-04-24T02:02:06;16.60;;;14.17;;
15833;SDS011;8017;50.812;4.934;2023-04-24T02:05:08;18.67;;;14.80;;
15833;SDS011;8017;50.812;4.934;2023-04-24T02:08:12;16.90;;;13.17;;
15833;SDS011;8017;50.812;4.934;2023-04-24T02:11:14;16.47;;;12.37;;
15833;SDS011;8017;50.812;4.934;2023-04-24T02:14:16;14.10;;;11.73;;
15833;SDS011;8017;50.812;4.934;2023-04-24T02:17:18;16.00;;;11.83;;
15833;SDS011;8017;50.812;4.934;2023-04-24T02:20:19;13.53;;;11.80;;
15833;SDS011;8017;50.812;4.934;2023-04-24T02:23:23;16.27;;;11.90;;
15833;SDS011;8017;50.812;4.934;2023-04-24T02:26:25;14.30;;;12.30;;
15833;SDS011;8017;50.812;4.934;2023-04-24T02:29:27;17.20;;;13.57;;
15833;SDS011;8017;50.812;4.934;2023-04-24T02:32:29;18.03;;;13.77;;
15833;SDS011;8017;50.812;4.934;2023-04-24T02:35:31;18.17;;;14.23;;
15833;SDS011;8017;50.812;4.934;2023-04-24T02:38:35;18.93;;;15.07;;
15833;SDS011;8017;50.812;4.934;2023-04-24T02:41:37;16.97;;;14.53;;
15833;SDS011;8017;50.812;4.934;2023-04-24T02:44:38;17.53;;;14.97;;
15833;SDS011;8017;50.812;4.934;2023-04-24T02:47:40;17.33;;;14.50;;
15833;SDS011;8017;50.812;4.934;2023-04-24T02:50:42;17.70;;;14.33;;
15833;SDS011;8017;50.812;4.934;2023-04-24T02:53:46;16.63;;;14.00;;
15833;SDS011;8017;50.812;4.934;2023-04-24T02:56:48;21.60;;;15.60;;
15833;SDS011;8017;50.812;4.934;2023-04-24T02:59:50;17.27;;;15.20;;
15833;SDS011;8017;50.812;4.934;2023-04-24T03:02:52;18.03;;;14.77;;
15833;SDS011;8017;50.812;4.934;2023-04-24T03:05:54;19.03;;;16.20;;
15833;SDS011;8017;50.812;4.934;2023-04-24T03:08:58;15.57;;;13.87;;
15833;SDS011;8017;50.812;4.934;2023-04-24T03:12:00;18.60;;;14.57;;
15833;SDS011;8017;50.812;4.934;2023-04-24T03:15:02;18.67;;;14.13;;
15833;SDS011;8017;50.812;4.934;2023-04-24T03:18:04;17.00;;;12.77;;
15833;SDS011;8017;50.812;4.934;2023-04-24T03:21:06;16.17;;;13.53;;
15833;SDS011;8017;50.812;4.934;2023-04-24T03:24:09;19.47;;;13.10;;
15833;SDS011;8017;50.812;4.934;2023-04-24T03:27:11;20.50;;;13.53;;
15833;SDS011;8017;50.812;4.934;2023-04-24T03:30:13;17.20;;;13.50;;
15833;SDS011;8017;50.812;4.934;2023-04-24T03:33:15;16.47;;;13.47;;
15833;SDS011;8017;50.812;4.934;2023-04-24T03:36:17;17.67;;;13.37;;
15833;SDS011;8017;50.812;4.934;2023-04-24T03:39:20;18.03;;;13.47;;
15833;SDS011;8017;50.812;4.934;2023-04-24T03:42:22;18.93;;;14.07;;
15833;SDS011;8017;50.812;4.934;2023-04-24T03:45:24;18.47;;;14.13;;
15833;SDS011;8017;50.812;4.934;2023-04-24T03:48:26;18.23;;;14.63;;
15833;SDS011;8017;50.812;4.934;2023-04-24T03:51:28;17.17;;;14.10;;
15833;SDS011;8017;50.812;4.934;2023-04-24T03:54:32;17.50;;;13.13;;
15833;SDS011;8017;50.812;4.934;2023-04-24T03:57:34;16.97;;;12.50;;
15833;SDS011;8017;50.812;4.934;2023-04-24T04:00:36;19.20;;;13.13;;
15833;SDS011;8017;50.812;4.934;2023-04-24T04:03:40;14.33;;;11.87;;
15833;SDS011;8017;50.812;4.934;2023-04-24T04:06:42;14.70;;;11.83;;
15833;SDS011;8017;50.812;4.934;2023-04-24T04:09:46;17.57;;;12.00;;
15833;SDS011;8017;50.812;4.934;2023-04-24T04:12:48;13.73;;;10.87;;
15833;SDS011;8017;50.812;4.934;2023-04-24T04:15:49;14.50;;;11.37;;
15833;SDS011;8017;50.812;4.934;2023-04-24T04:18:51;16.80;;;11.33;;
15833;SDS011;8017;50.812;4.934;2023-04-24T04:21:53;13.90;;;10.80;;
15833;SDS011;8017;50.812;4.934;2023-04-24T04:24:57;16.07;;;10.70;;
15833;SDS011;8017;50.812;4.934;2023-04-24T04:27:59;13.93;;;11.60;;
15833;SDS011;8017;50.812;4.934;2023-04-24T04:31:02;15.43;;;10.90;;
15833;SDS011;8017;50.812;4.934;2023-04-24T04:34:03;14.83;;;11.00;;
15833;SDS011;8017;50.812;4.934;2023-04-24T04:37:05;13.97;;;10.83;;
15833;SDS011;8017;50.812;4.934;2023-04-24T04:40:09;14.73;;;10.27;;
15833;SDS011;8017;50.812;4.934;2023-04-24T04:43:11;12.87;;;10.60;;
15833;SDS011;8017;50.812;4.934;2023-04-24T04:46:14;11.60;;;10.40;;
15833;SDS011;8017;50.812;4.934;2023-04-24T04:49:16;11.80;;;10.57;;
15833;SDS011;8017;50.812;4.934;2023-04-24T04:52:18;11.47;;;9.73;;
15833;SDS011;8017;50.812;4.934;2023-04-24T04:55:26;11.43;;;10.23;;
15833;SDS011;8017;50.812;4.934;2023-04-24T04:58:28;10.90;;;8.63;;
15833;SDS011;8017;50.812;4.934;2023-04-24T05:01:30;12.20;;;9.20;;
15833;SDS011;8017;50.812;4.934;2023-04-24T05:04:32;9.80;;;8.60;;
15833;SDS011;8017;50.812;4.934;2023-04-24T05:07:34;11.33;;;8.70;;
15833;SDS011;8017;50.812;4.934;2023-04-24T05:10:37;10.77;;;7.83;;
15833;SDS011;8017;50.812;4.934;2023-04-24T05:13:39;9.13;;;6.73;;
15833;SDS011;8017;50.812;4.934;2023-04-24T05:16:41;9.53;;;7.30;;
15833;SDS011;8017;50.812;4.934;2023-04-24T05:19:43;8.17;;;7.17;;
15833;SDS011;8017;50.812;4.934;2023-04-24T05:22:46;11.90;;;7.10;;
15833;SDS011;8017;50.812;4.934;2023-04-24T05:25:49;7.83;;;7.03;;
15833;SDS011;8017;50.812;4.934;2023-04-24T05:28:51;7.93;;;7.23;;
15833;SDS011;8017;50.812;4.934;2023-04-24T05:31:53;11.07;;;7.60;;
15833;SDS011;8017;50.812;4.934;2023-04-24T05:34:55;9.67;;;8.20;;
15833;SDS011;8017;50.812;4.934;2023-04-24T05:37:57;10.33;;;8.07;;
15833;SDS011;8017;50.812;4.934;2023-04-24T05:41:00;9.60;;;7.97;;
15833;SDS011;8017;50.812;4.934;2023-04-24T05:44:02;9.13;;;8.00;;
15833;SDS011;8017;50.812;4.934;2023-04-24T05:47:04;11.40;;;8.60;;
15833;SDS011;8017;50.812;4.934;2023-04-24T05:50:06;10.13;;;7.97;;
15833;SDS011;8017;50.812;4.934;2023-04-24T05:53:09;10.93;;;8.90;;
15833;SDS011;8017;50.812;4.934;2023-04-24T05:56:12;14.30;;;9.37;;
15833;SDS011;8017;50.812;4.934;2023-04-24T05:59:14;13.47;;;8.93;;
15833;SDS011;8017;50.812;4.934;2023-04-24T06:02:16;12.03;;;9.47;;
15833;SDS011;8017;50.812;4.934;2023-04-24T06:05:18;12.97;;;10.20;;
15833;SDS011;8017;50.812;4.934;2023-04-24T06:08:20;12.53;;;10.20;;
15833;SDS011;8017;50.812;4.934;2023-04-24T06:11:24;14.07;;;11.07;;
15833;SDS011;8017;50.812;4.934;2023-04-24T06:14:26;15.20;;;11.13;;
15833;SDS011;8017;50.812;4.934;2023-04-24T06:17:27;15.13;;;10.57;;
15833;SDS011;8017;50.812;4.934;2023-04-24T06:20:29;15.70;;;11.73;;
15833;SDS011;8017;50.812;4.934;2023-04-24T06:23:31;15.73;;;12.27;;
15833;SDS011;8017;50.812;4.934;2023-04-24T06:26:35;17.60;;;12.33;;
15833;SDS011;8017;50.812;4.934;2023-04-24T06:29:37;13.47;;;11.23;;
15833;SDS011;8017;50.812;4.934;2023-04-24T06:32:39;15.90;;;12.60;;
15833;SDS011;8017;50.812;4.934;2023-04-24T06:35:41;14.13;;;11.90;;
15833;SDS011;8017;50.812;4.934;2023-04-24T06:38:43;18.27;;;13.17;;
15833;SDS011;8017;50.812;4.934;2023-04-24T06:41:46;15.73;;;12.97;;
15833;SDS011;8017;50.812;4.934;2023-04-24T06:44:48;18.77;;;12.40;;
15833;SDS011;8017;50.812;4.934;2023-04-24T06:47:50;16.87;;;12.27;;
15833;SDS011;8017;50.812;4.934;2023-04-24T06:50:52;20.97;;;13.33;;
15833;SDS011;8017;50.812;4.934;2023-04-24T06:53:54;20.57;;;14.40;;
15833;SDS011;8017;50.812;4.934;2023-04-24T06:56:58;19.70;;;14.70;;
15833;SDS011;8017;50.812;4.934;2023-04-24T07:00:00;21.30;;;14.40;;
15833;SDS011;8017;50.812;4.934;2023-04-24T07:03:03;21.23;;;15.47;;
15833;SDS011;8017;50.812;4.934;2023-04-24T07:06:06;20.93;;;14.87;;
15833;SDS011;8017;50.812;4.934;2023-04-24T07:09:08;19.97;;;14.93;;
15833;SDS011;8017;50.812;4.934;2023-04-24T07:12:12;23.60;;;15.30;;
15833;SDS011;8017;50.812;4.934;2023-04-24T07:15:14;23.67;;;15.00;;
15833;SDS011;8017;50.812;4.934;2023-04-24T07:18:16;21.30;;;14.83;;
15833;SDS011;8017;50.812;4.934;2023-04-24T07:21:18;20.77;;;14.57;;
15833;SDS011;8017;50.812;4.934;2023-04-24T07:24:20;21.47;;;14.20;;
15833;SDS011;8017;50.812;4.934;2023-04-24T07:27:23;22.87;;;15.87;;
15833;SDS011;8017;50.812;4.934;2023-04-24T07:30:26;22.03;;;15.77;;
15833;SDS011;8017;50.812;4.934;2023-04-24T07:33:28;23.47;;;16.07;;
15833;SDS011;8017;50.812;4.934;2023-04-24T07:36:30;18.93;;;14.27;;
15833;SDS011;8017;50.812;4.934;2023-04-24T07:39:32;20.37;;;14.97;;
15833;SDS011;8017;50.812;4.934;2023-04-24T07:42:36;21.87;;;14.37;;
15833;SDS011;8017;50.812;4.934;2023-04-24T07:45:38;22.47;;;15.80;;
15833;SDS011;8017;50.812;4.934;2023-04-24T07:48:40;20.47;;;14.80;;
15833;SDS011;8017;50.812;4.934;2023-04-24T07:51:42;20.73;;;15.30;;
15833;SDS011;8017;50.812;4.934;2023-04-24T07:54:45;22.90;;;14.63;;
15833;SDS011;8017;50.812;4.934;2023-04-24T07:57:48;19.87;;;14.80;;
15833;SDS011;8017;50.812;4.934;2023-04-24T08:00:50;21.97;;;14.80;;
15833;SDS011;8017;50.812;4.934;2023-04-24T08:03:52;17.77;;;14.80;;
15833;SDS011;8017;50.812;4.934;2023-04-24T08:06:54;19.40;;;14.93;;
15833;SDS011;8017;50.812;4.934;2023-04-24T08:09:56;22.17;;;14.30;;
15833;SDS011;8017;50.812;4.934;2023-04-24T08:13:00;23.80;;;14.23;;
15833;SDS011;8017;50.812;4.934;2023-04-24T08:16:02;16.30;;;13.23;;
15833;SDS011;8017;50.812;4.934;2023-04-24T08:19:04;17.73;;;11.53;;
15833;SDS011;8017;50.812;4.934;2023-04-24T08:22:06;18.93;;;11.83;;
15833;SDS011;8017;50.812;4.934;2023-04-24T08:25:08;17.33;;;11.27;;
15833;SDS011;8017;50.812;4.934;2023-04-24T08:28:13;15.50;;;12.30;;
15833;SDS011;8017;50.812;4.934;2023-04-24T08:31:20;20.03;;;13.23;;
15833;SDS011;8017;50.812;4.934;2023-04-24T08:34:22;16.73;;;11.03;;
15833;SDS011;8017;50.812;4.934;2023-04-24T08:37:24;14.73;;;9.87;;
15833;SDS011;8017;50.812;4.934;2023-04-24T08:40:27;14.47;;;9.13;;
15833;SDS011;8017;50.812;4.934;2023-04-24T08:43:32;10.43;;;7.97;;
15833;SDS011;8017;50.812;4.934;2023-04-24T08:46:36;11.10;;;7.53;;
15833;SDS011;8017;50.812;4.934;2023-04-24T08:49:38;10.53;;;6.97;;
15833;SDS011;8017;50.812;4.934;2023-04-24T08:52:40;15.20;;;8.07;;
15833;SDS011;8017;50.812;4.934;2023-04-24T08:55:43;13.97;;;8.40;;
15833;SDS011;8017;50.812;4.934;2023-04-24T08:58:49;12.73;;;8.50;;
15833;SDS011;8017;50.812;4.934;2023-04-24T09:01:51;16.60;;;9.47;;
15833;SDS011;8017;50.812;4.934;2023-04-24T09:04:54;16.87;;;10.03;;
15833;SDS011;8017;50.812;4.934;2023-04-24T09:07:57;17.17;;;10.10;;
15833;SDS011;8017;50.812;4.934;2023-04-24T09:11:00;15.90;;;10.03;;
15833;SDS011;8017;50.812;4.934;2023-04-24T09:14:05;18.43;;;10.07;;
15833;SDS011;8017;50.812;4.934;2023-04-24T09:17:07;14.67;;;8.73;;
15833;SDS011;8017;50.812;4.934;2023-04-24T09:20:10;12.30;;;8.53;;
15833;SDS011;8017;50.812;4.934;2023-04-24T09:23:14;12.43;;;6.90;;
15833;SDS011;8017;50.812;4.934;2023-04-24T09:26:18;13.53;;;7.63;;
15833;SDS011;8017;50.812;4.934;2023-04-24T09:29:25;16.07;;;7.90;;
15833;SDS011;8017;50.812;4.934;2023-04-24T09:32:27;15.87;;;6.27;;
15833;SDS011;8017;50.812;4.934;2023-04-24T09:35:30;11.63;;;6.27;;
15833;SDS011;8017;50.812;4.934;2023-04-24T09:38:34;16.20;;;6.60;;
15833;SDS011;8017;50.812;4.934;2023-04-24T09:41:43;13.63;;;6.13;;
15833;SDS011;8017;50.812;4.934;2023-04-24T09:44:47;8.07;;;5.63;;
15833;SDS011;8017;50.812;4.934;2023-04-24T09:47:52;9.90;;;5.30;;
15833;SDS011;8017;50.812;4.934;2023-04-24T09:50:55;11.13;;;5.27;;
15833;SDS011;8017;50.812;4.934;2023-04-24T09:53:56;10.87;;;5.73;;
15833;SDS011;8017;50.812;4.934;2023-04-24T09:56:58;13.03;;;4.97;;
15833;SDS011;8017;50.812;4.934;2023-04-24T10:00:02;8.57;;;5.50;;
15833;SDS011;8017;50.812;4.934;2023-04-24T10:03:05;7.67;;;4.70;;
15833;SDS011;8017;50.812;4.934;2023-04-24T10:06:08;7.83;;;4.87;;
15833;SDS011;8017;50.812;4.934;2023-04-24T10:09:13;12.63;;;4.93;;
15833;SDS011;8017;50.812;4.934;2023-04-24T10:12:15;12.23;;;4.60;;
15833;SDS011;8017;50.812;4.934;2023-04-24T10:15:19;7.97;;;3.77;;
15833;SDS011;8017;50.812;4.934;2023-04-24T10:18:22;8.53;;;3.97;;
15833;SDS011;8017;50.812;4.934;2023-04-24T10:21:25;8.70;;;4.27;;
15833;SDS011;8017;50.812;4.934;2023-04-24T10:24:27;7.23;;;4.27;;
15833;SDS011;8017;50.812;4.934;2023-04-24T10:27:31;8.33;;;4.47;;
15833;SDS011;8017;50.812;4.934;2023-04-24T10:30:35;9.27;;;4.30;;
15833;SDS011;8017;50.812;4.934;2023-04-24T10:33:37;10.67;;;4.53;;
15833;SDS011;8017;50.812;4.934;2023-04-24T10:36:42;7.20;;;4.47;;
15833;SDS011;8017;50.812;4.934;2023-04-24T10:39:49;11.53;;;4.40;;
15833;SDS011;8017;50.812;4.934;2023-04-24T10:42:51;9.00;;;4.40;;
15833;SDS011;8017;50.812;4.934;2023-04-24T10:46:01;6.70;;;4.00;;
15833;SDS011;8017;50.812;4.934;2023-04-24T10:49:04;10.33;;;5.13;;
15833;SDS011;8017;50.812;4.934;2023-04-24T10:52:08;6.90;;;3.80;;
15833;SDS011;8017;50.812;4.934;2023-04-24T10:55:12;8.57;;;3.73;;
15833;SDS011;8017;50.812;4.934;2023-04-24T10:58:15;8.30;;;4.40;;
15833;SDS011;8017;50.812;4.934;2023-04-24T11:01:25;7.47;;;3.80;;
15833;SDS011;8017;50.812;4.934;2023-04-24T11:04:31;9.33;;;3.53;;
15833;SDS011;8017;50.812;4.934;2023-04-24T11:11:11;11.33;;;3.83;;
15833;SDS011;8017;50.812;4.934;2023-04-24T11:14:14;8.43;;;3.80;;
15833;SDS011;8017;50.812;4.934;2023-04-24T11:17:28;7.07;;;3.93;;
15833;SDS011;8017;50.812;4.934;2023-04-24T11:20:31;7.97;;;4.03;;
15833;SDS011;8017;50.812;4.934;2023-04-24T11:23:35;6.67;;;3.83;;
15833;SDS011;8017;50.812;4.934;2023-04-24T11:26:37;6.87;;;4.13;;
15833;SDS011;8017;50.812;4.934;2023-04-24T11:29:41;6.43;;;4.10;;
15833;SDS011;8017;50.812;4.934;2023-04-24T11:32:48;7.43;;;4.03;;
15833;SDS011;8017;50.812;4.934;2023-04-24T11:35:52;8.67;;;4.20;;
15833;SDS011;8017;50.812;4.934;2023-04-24T11:38:54;8.63;;;3.90;;
15833;SDS011;8017;50.812;4.934;2023-04-24T11:42:01;10.40;;;4.30;;
15833;SDS011;8017;50.812;4.934;2023-04-24T11:45:07;6.67;;;3.97;;
15833;SDS011;8017;50.812;4.934;2023-04-24T11:48:11;6.40;;;4.03;;
15833;SDS011;8017;50.812;4.934;2023-04-24T11:51:13;4.83;;;3.73;;
15833;SDS011;8017;50.812;4.934;2023-04-24T11:54:15;8.20;;;4.40;;
15833;SDS011;8017;50.812;4.934;2023-04-24T11:57:19;6.90;;;4.37;;
15833;SDS011;8017;50.812;4.934;2023-04-24T12:00:22;7.03;;;4.07;;
15833;SDS011;8017;50.812;4.934;2023-04-24T12:03:26;7.20;;;4.10;;
15833;SDS011;8017;50.812;4.934;2023-04-24T12:06:28;9.93;;;5.03;;
15833;SDS011;8017;50.812;4.934;2023-04-24T12:09:40;8.17;;;4.90;;
15833;SDS011;8017;50.812;4.934;2023-04-24T12:12:43;9.33;;;4.80;;
15833;SDS011;8017;50.812;4.934;2023-04-24T12:15:47;11.23;;;4.67;;
15833;SDS011;8017;50.812;4.934;2023-04-24T12:18:52;6.87;;;4.83;;
15833;SDS011;8017;50.812;4.934;2023-04-24T12:22:00;8.17;;;5.00;;
15833;SDS011;8017;50.812;4.934;2023-04-24T12:25:04;9.10;;;5.00;;
15833;SDS011;8017;50.812;4.934;2023-04-24T12:28:10;7.37;;;4.77;;
15833;SDS011;8017;50.812;4.934;2023-04-24T12:31:12;9.70;;;5.17;;
15833;SDS011;8017;50.812;4.934;2023-04-24T12:34:19;5.60;;;4.53;;
15833;SDS011;8017;50.812;4.934;2023-04-24T12:37:22;6.50;;;4.30;;
15833;SDS011;8017;50.812;4.934;2023-04-24T12:40:25;7.00;;;4.47;;
15833;SDS011;8017;50.812;4.934;2023-04-24T12:43:29;4.37;;;3.93;;
15833;SDS011;8017;50.812;4.934;2023-04-24T12:46:31;9.83;;;4.40;;
15833;SDS011;8017;50.812;4.934;2023-04-24T12:49:34;8.00;;;4.87;;
15833;SDS011;8017;50.812;4.934;2023-04-24T12:52:36;8.50;;;4.93;;
15833;SDS011;8017;50.812;4.934;2023-04-24T12:55:39;7.70;;;4.80;;
15833;SDS011;8017;50.812;4.934;2023-04-24T12:58:41;7.23;;;5.43;;
15833;SDS011;8017;50.812;4.934;2023-04-24T13:01:43;6.60;;;4.63;;
15833;SDS011;8017;50.812;4.934;2023-04-24T13:04:46;7.33;;;5.40;;
15833;SDS011;8017;50.812;4.934;2023-04-24T13:07:48;7.13;;;4.67;;
15833;SDS011;8017;50.812;4.934;2023-04-24T13:10:50;7.93;;;4.77;;
15833;SDS011;8017;50.812;4.934;2023-04-24T13:13:54;7.73;;;4.80;;
15833;SDS011;8017;50.812;4.934;2023-04-24T13:16:56;6.53;;;4.40;;
15833;SDS011;8017;50.812;4.934;2023-04-24T13:19:59;8.27;;;5.07;;
15833;SDS011;8017;50.812;4.934;2023-04-24T13:23:01;6.27;;;4.70;;
15833;SDS011;8017;50.812;4.934;2023-04-24T13:26:03;6.03;;;4.23;;
15833;SDS011;8017;50.812;4.934;2023-04-24T13:29:05;4.87;;;3.87;;
15833;SDS011;8017;50.812;4.934;2023-04-24T13:32:07;7.43;;;4.03;;
15833;SDS011;8017;50.812;4.934;2023-04-24T13:35:11;7.93;;;4.30;;
15833;SDS011;8017;50.812;4.934;2023-04-24T13:38:13;5.33;;;4.03;;
15833;SDS011;8017;50.812;4.934;2023-04-24T13:41:15;8.10;;;4.13;;
15833;SDS011;8017;50.812;4.934;2023-04-24T13:44:18;8.17;;;4.00;;
15833;SDS011;8017;50.812;4.934;2023-04-24T13:47:20;6.63;;;4.10;;
15833;SDS011;8017;50.812;4.934;2023-04-24T13:50:24;3.93;;;3.50;;
15833;SDS011;8017;50.812;4.934;2023-04-24T13:53:26;4.40;;;3.30;;
15833;SDS011;8017;50.812;4.934;2023-04-24T13:56:28;6.83;;;3.47;;
15833;SDS011;8017;50.812;4.934;2023-04-24T13:59:30;6.80;;;3.40;;
15833;SDS011;8017;50.812;4.934;2023-04-24T14:02:32;4.90;;;3.23;;
15833;SDS011;8017;50.812;4.934;2023-04-24T14:05:35;6.27;;;3.40;;
15833;SDS011;8017;50.812;4.934;2023-04-24T14:08:37;4.70;;;3.20;;
15833;SDS011;8017;50.812;4.934;2023-04-24T14:11:39;4.27;;;3.50;;
15833;SDS011;8017;50.812;4.934;2023-04-24T14:14:41;7.57;;;3.50;;
15833;SDS011;8017;50.812;4.934;2023-04-24T14:17:43;6.93;;;3.40;;
15833;SDS011;8017;50.812;4.934;2023-04-24T14:20:46;6.23;;;3.60;;
15833;SDS011;8017;50.812;4.934;2023-04-24T14:23:48;6.23;;;3.70;;
15833;SDS011;8017;50.812;4.934;2023-04-24T14:26:50;3.27;;;2.60;;
15833;SDS011;8017;50.812;4.934;2023-04-24T14:29:52;4.10;;;2.73;;
15833;SDS011;8017;50.812;4.934;2023-04-24T14:32:54;4.23;;;2.77;;
15833;SDS011;8017;50.812;4.934;2023-04-24T14:35:58;5.77;;;2.90;;
15833;SDS011;8017;50.812;4.934;2023-04-24T14:39:00;4.87;;;2.93;;
15833;SDS011;8017;50.812;4.934;2023-04-24T14:42:06;10.03;;;3.70;;
15833;SDS011;8017;50.812;4.934;2023-04-24T14:45:08;4.53;;;2.87;;
15833;SDS011;8017;50.812;4.934;2023-04-24T14:48:11;5.63;;;3.00;;
15833;SDS011;8017;50.812;4.934;2023-04-24T14:51:14;4.90;;;3.13;;
15833;SDS011;8017;50.812;4.934;2023-04-24T14:54:16;6.60;;;3.23;;
15833;SDS011;8017;50.812;4.934;2023-04-24T14:57:18;4.53;;;2.83;;
15833;SDS011;8017;50.812;4.934;2023-04-24T15:00:20;3.77;;;2.40;;
15833;SDS011;8017;50.812;4.934;2023-04-24T15:03:23;8.27;;;2.97;;
15833;SDS011;8017;50.812;4.934;2023-04-24T15:06:29;4.83;;;2.83;;
15833;SDS011;8017;50.812;4.934;2023-04-24T15:09:32;5.10;;;2.77;;
15833;SDS011;8017;50.812;4.934;2023-04-24T15:12:34;3.93;;;2.40;;
15833;SDS011;8017;50.812;4.934;2023-04-24T15:15:36;8.20;;;3.00;;
15833;SDS011;8017;50.812;4.934;2023-04-24T15:18:38;8.17;;;2.57;;
15833;SDS011;8017;50.812;4.934;2023-04-24T15:21:41;5.90;;;2.90;;
15833;SDS011;8017;50.812;4.934;2023-04-24T15:24:44;4.53;;;2.23;;
15833;SDS011;8017;50.812;4.934;2023-04-24T15:27:47;4.57;;;2.53;;
15833;SDS011;8017;50.812;4.934;2023-04-24T15:30:49;5.90;;;2.47;;
15833;SDS011;8017;50.812;4.934;2023-04-24T15:33:51;4.73;;;2.47;;
15833;SDS011;8017;50.812;4.934;2023-04-24T15:36:54;5.43;;;2.60;;
15833;SDS011;8017;50.812;4.934;2023-04-24T15:39:56;6.10;;;2.67;;
15833;SDS011;8017;50.812;4.934;2023-04-24T15:42:59;4.67;;;2.33;;
15833;SDS011;8017;50.812;4.934;2023-04-24T15:46:01;3.27;;;2.77;;
15833;SDS011;8017;50.812;4.934;2023-04-24T15:49:04;4.47;;;2.63;;
15833;SDS011;8017;50.812;4.934;2023-04-24T15:52:07;4.30;;;2.33;;
15833;SDS011;8017;50.812;4.934;2023-04-24T15:55:09;5.23;;;2.80;;
15833;SDS011;8017;50.812;4.934;2023-04-24T15:58:12;9.30;;;2.77;;
15833;SDS011;8017;50.812;4.934;2023-04-24T16:01:13;4.47;;;2.53;;
15833;SDS011;8017;50.812;4.934;2023-04-24T16:04:15;6.37;;;3.10;;
15833;SDS011;8017;50.812;4.934;2023-04-24T16:07:19;4.07;;;3.03;;
15833;SDS011;8017;50.812;4.934;2023-04-24T16:10:21;4.00;;;2.90;;
15833;SDS011;8017;50.812;4.934;2023-04-24T16:13:29;4.63;;;2.57;;
15833;SDS011;8017;50.812;4.934;2023-04-24T16:16:35;4.03;;;2.50;;
15833;SDS011;8017;50.812;4.934;2023-04-24T16:19:37;3.00;;;2.30;;
15833;SDS011;8017;50.812;4.934;2023-04-24T16:22:40;5.30;;;2.60;;
15833;SDS011;8017;50.812;4.934;2023-04-24T16:25:42;4.63;;;2.53;;
15833;SDS011;8017;50.812;4.934;2023-04-24T16:28:44;6.37;;;3.03;;
15833;SDS011;8017;50.812;4.934;2023-04-24T16:31:46;6.20;;;2.93;;
15833;SDS011;8017;50.812;4.934;2023-04-24T16:34:48;3.93;;;2.67;;
15833;SDS011;8017;50.812;4.934;2023-04-24T16:37:52;3.13;;;2.13;;
15833;SDS011;8017;50.812;4.934;2023-04-24T16:40:54;4.47;;;2.30;;
15833;SDS011;8017;50.812;4.934;2023-04-24T16:43:55;3.63;;;2.40;;
15833;SDS011;8017;50.812;4.934;2023-04-24T16:46:57;3.80;;;1.80;;
15833;SDS011;8017;50.812;4.934;2023-04-24T16:49:59;3.70;;;2.00;;
15833;SDS011;8017;50.812;4.934;2023-04-24T16:53:03;4.77;;;2.40;;
15833;SDS011;8017;50.812;4.934;2023-04-24T16:56:05;6.10;;;2.33;;
15833;SDS011;8017;50.812;4.934;2023-04-24T16:59:07;4.63;;;2.70;;
15833;SDS011;8017;50.812;4.934;2023-04-24T17:02:09;6.00;;;2.50;;
15833;SDS011;8017;50.812;4.934;2023-04-24T17:05:11;4.80;;;2.10;;
15833;SDS011;8017;50.812;4.934;2023-04-24T17:08:14;5.07;;;2.20;;
15833;SDS011;8017;50.812;4.934;2023-04-24T17:11:16;4.90;;;2.73;;
15833;SDS011;8017;50.812;4.934;2023-04-24T17:14:18;4.27;;;2.10;;
15833;SDS011;8017;50.812;4.934;2023-04-24T17:17:22;4.13;;;2.70;;
15833;SDS011;8017;50.812;4.934;2023-04-24T17:20:24;3.67;;;2.67;;
15833;SDS011;8017;50.812;4.934;2023-04-24T17:23:27;4.43;;;2.53;;
15833;SDS011;8017;50.812;4.934;2023-04-24T17:26:29;6.83;;;2.90;;
15833;SDS011;8017;50.812;4.934;2023-04-24T17:29:33;3.13;;;2.80;;
15833;SDS011;8017;50.812;4.934;2023-04-24T17:32:35;4.30;;;2.20;;
15833;SDS011;8017;50.812;4.934;2023-04-24T17:35:37;3.57;;;2.30;;
15833;SDS011;8017;50.812;4.934;2023-04-24T17:38:41;4.43;;;2.23;;
15833;SDS011;8017;50.812;4.934;2023-04-24T17:41:43;3.67;;;2.30;;
15833;SDS011;8017;50.812;4.934;2023-04-24T17:44:45;4.30;;;2.23;;
15833;SDS011;8017;50.812;4.934;2023-04-24T17:47:47;4.13;;;2.37;;
15833;SDS011;8017;50.812;4.934;2023-04-24T17:50:49;2.73;;;2.03;;
15833;SDS011;8017;50.812;4.934;2023-04-24T17:53:52;4.23;;;2.30;;
15833;SDS011;8017;50.812;4.934;2023-04-24T17:56:54;4.77;;;2.10;;
15833;SDS011;8017;50.812;4.934;2023-04-24T17:59:56;3.37;;;2.03;;
15833;SDS011;8017;50.812;4.934;2023-04-24T18:02:58;6.03;;;2.30;;
15833;SDS011;8017;50.812;4.934;2023-04-24T18:06:00;3.67;;;2.17;;
15833;SDS011;8017;50.812;4.934;2023-04-24T18:09:04;3.33;;;2.20;;
15833;SDS011;8017;50.812;4.934;2023-04-24T18:12:05;3.70;;;2.20;;
15833;SDS011;8017;50.812;4.934;2023-04-24T18:15:08;4.50;;;2.33;;
15833;SDS011;8017;50.812;4.934;2023-04-24T18:18:11;5.07;;;2.23;;
15833;SDS011;8017;50.812;4.934;2023-04-24T18:21:14;4.97;;;2.77;;
15833;SDS011;8017;50.812;4.934;2023-04-24T18:24:17;3.13;;;2.10;;